createdAt,value
2022-09-20T00:00:47.543Z,98647.25
2022-09-20T00:03:15.492Z,98645.53
2022-09-20T00:05:43.940Z,98641.31
2022-09-20T00:08:13.659Z,98643.03
2022-09-20T00:10:40.818Z,98647.34
2022-09-20T00:13:10.026Z,98650.75
2022-09-20T00:15:42.573Z,98650.78
2022-09-20T00:18:09.238Z,98647.41
2022-09-20T00:20:35.886Z,98642.31
2022-09-20T00:23:02.274Z,98647.50
2022-09-20T00:25:28.651Z,98644.13
2022-09-20T00:27:55.367Z,98639.06
2022-09-20T00:30:21.962Z,98646.81
2022-09-20T00:32:48.346Z,98642.59
2022-09-20T00:35:14.718Z,98648.63
2022-09-20T00:37:42.649Z,98649.47
2022-09-20T00:40:14.501Z,98649.50
2022-09-20T00:42:41.227Z,98644.41
2022-09-20T00:45:19.685Z,98645.28
2022-09-20T00:47:59.398Z,98630.75
2022-09-20T00:50:28.767Z,98632.44
2022-09-20T00:53:06.057Z,98636.72
2022-09-20T00:55:35.839Z,98630.81
2022-09-20T00:58:02.910Z,98630.00
2022-09-20T01:00:29.623Z,98628.28
2022-09-20T01:03:01.530Z,98638.53
2022-09-20T01:05:28.361Z,98646.28
2022-09-20T01:07:56.359Z,98642.00
2022-09-20T01:10:22.841Z,98643.69
2022-09-20T01:12:51.442Z,98640.28
2022-09-20T01:15:18.203Z,98646.28
2022-09-20T01:17:49.524Z,98640.25
2022-09-20T01:20:20.882Z,98647.94
2022-09-20T01:23:07.156Z,98641.91
2022-09-20T01:25:51.909Z,98647.00
2022-09-20T01:28:18.587Z,98639.22
2022-09-20T01:31:06.887Z,98644.31
2022-09-20T01:33:39.238Z,98649.44
2022-09-20T01:36:06.620Z,98650.28
2022-09-20T01:39:02.229Z,98640.78
2022-09-20T01:42:12.100Z,98646.75
2022-09-20T01:44:53.279Z,98647.56
2022-09-20T01:47:38.258Z,98648.41
2022-09-20T01:50:20.664Z,98643.28
2022-09-20T01:53:07.985Z,98649.22
2022-09-20T01:56:02.234Z,98658.63
2022-09-20T01:58:41.162Z,98655.16
2022-09-20T02:01:40.432Z,98659.41
2022-09-20T02:04:40.995Z,98657.66
2022-09-20T02:07:16.328Z,98654.19
2022-09-20T02:10:01.464Z,98657.66
2022-09-20T02:12:51.284Z,98652.53
2022-09-20T02:15:29.096Z,98654.19
2022-09-20T02:18:14.722Z,98648.22
2022-09-20T02:21:02.306Z,98651.59
2022-09-20T02:23:47.770Z,98653.34
2022-09-20T02:26:50.463Z,98652.41
2022-09-20T02:29:46.362Z,98652.41
2022-09-20T02:32:39.406Z,98658.44
2022-09-20T02:35:14.834Z,98658.44
2022-09-20T02:37:47.249Z,98659.28
2022-09-20T02:40:39.912Z,98654.16
2022-09-20T02:43:31.641Z,98648.16
2022-09-20T02:46:30.187Z,98657.63
2022-09-20T02:49:11.215Z,98659.25
2022-09-20T02:51:46.678Z,98656.75
2022-09-20T02:54:30.253Z,98655.91
2022-09-20T02:57:04.179Z,98653.31
2022-09-20T03:00:03.618Z,98649.00
2022-09-20T03:02:40.535Z,98657.63
2022-09-20T03:05:24.931Z,98658.41
2022-09-20T03:08:10.000Z,98665.34
2022-09-20T03:11:18.335Z,98655.91
2022-09-20T03:14:11.819Z,98659.41
2022-09-20T03:17:05.966Z,98662.91
2022-09-20T03:19:48.290Z,98658.66
2022-09-20T03:22:39.297Z,98662.91
2022-09-20T03:25:14.583Z,98668.06
2022-09-20T03:28:06.529Z,98662.94
2022-09-20T03:30:51.596Z,98677.53
2022-09-20T03:33:47.604Z,98669.81
2022-09-20T03:36:40.242Z,98674.13
2022-09-20T03:39:30.141Z,98668.16
2022-09-20T03:42:18.132Z,98667.34
2022-09-20T03:44:50.161Z,98667.34
2022-09-20T03:47:54.302Z,98662.19
2022-09-20T03:50:45.065Z,98663.16
2022-09-20T03:53:40.431Z,98668.34
2022-09-20T03:56:21.320Z,98661.59
2022-09-20T03:59:03.741Z,98664.25
2022-09-20T04:02:27.132Z,98672.00
2022-09-20T04:05:05.432Z,98673.81
2022-09-20T04:08:02.428Z,98681.53
2022-09-20T04:10:46.858Z,98684.03
2022-09-20T04:13:35.022Z,98686.66
2022-09-20T04:17:03.444Z,98683.19
2022-09-20T04:19:38.714Z,98679.72
2022-09-20T04:22:07.443Z,98683.16
2022-09-20T04:24:53.698Z,98687.38
2022-09-20T04:27:38.071Z,98684.03
2022-09-20T04:30:24.113Z,98680.53
2022-09-20T04:33:22.019Z,98680.59
2022-09-20T04:36:31.148Z,98691.72
2022-09-20T04:39:06.148Z,98691.72
2022-09-20T04:41:34.331Z,98689.97
2022-09-20T04:44:35.417Z,98690.00
2022-09-20T04:47:23.761Z,98696.84
2022-09-20T04:50:11.433Z,98699.34
2022-09-20T04:52:49.972Z,98699.41
2022-09-20T04:56:01.942Z,98708.84
2022-09-20T04:58:28.305Z,98698.53
2022-09-20T05:01:17.112Z,98701.16
2022-09-20T05:03:58.865Z,98702.00
2022-09-20T05:07:04.460Z,98707.97
2022-09-20T05:09:55.806Z,98714.00
2022-09-20T05:12:34.445Z,98717.22
2022-09-20T05:15:28.871Z,98714.75
2022-09-20T05:18:20.827Z,98712.25
2022-09-20T05:21:01.455Z,98712.19
2022-09-20T05:23:43.019Z,98713.84
2022-09-20T05:26:13.681Z,98709.50
2022-09-20T05:28:50.479Z,98710.34
2022-09-20T05:31:50.912Z,98715.47
2022-09-20T05:34:29.292Z,98723.94
2022-09-20T05:37:17.523Z,98722.22
2022-09-20T05:39:54.928Z,98724.78
2022-09-20T05:42:48.801Z,98726.34
2022-09-20T05:45:34.089Z,98734.94
2022-09-20T05:48:10.885Z,98741.78
2022-09-20T05:50:55.255Z,98751.09
2022-09-20T05:53:42.265Z,98748.41
2022-09-20T05:56:37.189Z,98755.25
2022-09-20T05:59:28.571Z,98753.53
2022-09-20T06:02:10.767Z,98755.28
2022-09-20T06:04:50.336Z,98748.50
2022-09-20T06:07:47.074Z,98753.69
2022-09-20T06:10:31.061Z,98751.91
2022-09-20T06:13:37.354Z,98757.94
2022-09-20T06:16:06.522Z,98755.19
2022-09-20T06:19:00.198Z,98751.75
2022-09-20T06:21:50.053Z,98753.44
2022-09-20T06:24:36.772Z,98755.06
2022-09-20T06:27:13.785Z,98748.25
2022-09-20T06:29:43.916Z,98754.22
2022-09-20T06:32:10.395Z,98748.19
2022-09-20T06:34:36.946Z,98739.50
2022-09-20T06:37:38.428Z,98742.84
2022-09-20T06:40:49.598Z,98746.25
2022-09-20T06:43:16.051Z,98745.25
2022-09-20T06:45:42.879Z,98752.84
2022-09-20T06:48:11.617Z,98756.16
2022-09-20T06:50:38.664Z,98759.56
2022-09-20T06:53:05.874Z,98761.16
2022-09-20T06:55:40.917Z,98762.78
2022-09-20T06:58:08.995Z,98767.88
2022-09-20T07:00:35.832Z,98771.25
2022-09-20T07:03:02.200Z,98772.00
2022-09-20T07:05:29.213Z,98766.81
2022-09-20T07:07:59.190Z,98771.84
2022-09-20T07:10:29.989Z,98775.25
2022-09-20T07:13:01.426Z,98770.91
2022-09-20T07:15:28.948Z,98770.63
2022-09-20T07:17:55.736Z,98773.25
2022-09-20T07:20:23.152Z,98778.41
2022-09-20T07:22:49.911Z,98775.66
2022-09-20T07:25:18.223Z,98773.88
2022-09-20T07:27:46.409Z,98781.56
2022-09-20T07:30:14.898Z,98764.44
2022-09-20T07:32:41.247Z,98780.69
2022-09-20T07:35:10.067Z,98770.34
2022-09-20T07:37:37.339Z,98773.00
2022-09-20T07:40:05.347Z,98778.06
2022-09-20T07:42:32.089Z,98780.41
2022-09-20T07:44:59.375Z,98789.88
2022-09-20T07:47:26.563Z,98787.34
2022-09-20T07:49:53.349Z,98793.34
2022-09-20T07:52:19.718Z,98793.94
2022-09-20T07:54:46.147Z,98793.78
2022-09-20T07:57:13.288Z,98792.97
2022-09-20T07:59:39.689Z,98793.81
2022-09-20T08:02:06.309Z,98796.22
2022-09-20T08:04:32.794Z,98804.28
2022-09-20T08:07:01.635Z,98802.34
2022-09-20T08:09:28.079Z,98801.44
2022-09-20T08:11:56.435Z,98803.91
2022-09-20T08:14:24.148Z,98801.13
2022-09-20T08:16:51.777Z,98802.66
2022-09-20T08:19:21.066Z,98802.41
2022-09-20T08:21:47.966Z,98803.81
2022-09-20T08:24:16.335Z,98806.44
2022-09-20T08:26:43.725Z,98814.28
2022-09-20T08:29:11.639Z,98814.59
2022-09-20T08:31:40.350Z,98814.75
2022-09-20T08:34:09.908Z,98816.22
2022-09-20T08:36:41.054Z,98818.75
2022-09-20T08:41:58.497Z,98826.97
2022-09-20T08:44:35.705Z,98821.84
2022-09-20T08:47:13.266Z,98817.44
2022-09-20T08:49:40.514Z,98817.25
2022-09-20T08:52:11.445Z,98814.78
2022-09-20T08:54:38.158Z,98820.06
2022-09-20T08:57:14.318Z,98822.56
2022-09-20T08:59:40.936Z,98824.97
2022-09-20T09:02:20.061Z,98822.56
2022-09-20T09:04:48.987Z,98829.50
2022-09-20T09:07:19.759Z,98826.47
2022-09-20T09:09:47.534Z,98826.22
2022-09-20T09:12:21.075Z,98830.63
2022-09-20T09:14:57.351Z,98820.19
2022-09-20T09:17:30.705Z,98823.41
2022-09-20T09:19:59.663Z,98827.44
2022-09-20T09:25:21.851Z,98819.94
2022-09-20T09:27:52.787Z,98825.22
2022-09-20T09:30:23.663Z,98820.56
2022-09-20T09:32:50.163Z,98816.00
2022-09-20T09:35:28.253Z,98809.88
2022-09-20T09:38:00.770Z,98814.22
2022-09-20T09:40:29.826Z,98816.34
2022-09-20T09:42:58.732Z,98817.59
2022-09-20T09:45:38.670Z,98818.91
2022-09-20T09:48:40.888Z,98819.59
2022-09-20T09:51:11.414Z,98817.91
2022-09-20T09:53:39.306Z,98824.13
2022-09-20T09:56:21.551Z,98820.50
2022-09-20T09:59:00.125Z,98829.00
2022-09-20T10:01:39.556Z,98821.06
2022-09-20T10:04:24.980Z,98815.91
2022-09-20T10:07:03.950Z,98817.97
2022-09-20T10:09:41.285Z,98814.50
2022-09-20T10:12:35.732Z,98815.94
2022-09-20T10:15:05.058Z,98817.22
2022-09-20T10:17:46.550Z,98818.38
2022-09-20T10:20:28.626Z,98817.75
2022-09-20T10:26:32.699Z,98812.16
2022-09-20T10:29:15.684Z,98814.41
2022-09-20T10:31:48.578Z,98809.09
2022-09-20T10:34:39.541Z,98809.56
2022-09-20T10:37:17.802Z,98805.03
2022-09-20T10:39:54.566Z,98805.88
2022-09-20T10:42:47.610Z,98819.47
2022-09-20T10:45:43.977Z,98814.19
2022-09-20T10:48:26.986Z,98805.97
2022-09-20T10:51:08.913Z,98815.50
2022-09-20T10:53:43.767Z,98825.97
2022-09-20T10:56:27.462Z,98814.41
2022-09-20T10:59:19.123Z,98812.59
2022-09-20T11:02:12.403Z,98814.97
2022-09-20T11:04:53.745Z,98819.97
2022-09-20T11:07:34.280Z,98817.75
2022-09-20T11:10:13.151Z,98820.19
2022-09-20T11:12:50.817Z,98801.66
2022-09-20T11:15:34.329Z,98817.03
2022-09-20T11:18:07.935Z,98817.25
2022-09-20T11:20:44.199Z,98814.84
2022-09-20T11:23:15.265Z,98815.03
2022-09-20T11:25:50.249Z,98819.78
2022-09-20T11:28:28.104Z,98818.41
2022-09-20T11:31:03.294Z,98822.31
2022-09-20T11:33:52.360Z,98816.75
2022-09-20T11:36:29.696Z,98810.34
2022-09-20T11:39:03.545Z,98812.81
2022-09-20T11:41:31.270Z,98820.66
2022-09-20T11:44:04.347Z,98815.06
2022-09-20T11:46:39.978Z,98818.94
2022-09-20T11:49:16.107Z,98815.28
2022-09-20T11:51:51.554Z,98811.50
2022-09-20T11:54:54.700Z,98813.25
2022-09-20T11:57:22.449Z,98811.69
2022-09-20T11:59:54.274Z,98811.56
2022-09-20T12:02:26.680Z,98814.84
2022-09-20T12:04:53.446Z,98813.00
2022-09-20T12:07:24.760Z,98804.91
2022-09-20T12:10:00.483Z,98807.03
2022-09-20T12:12:41.682Z,98799.38
2022-09-20T12:15:23.367Z,98799.66
2022-09-20T12:17:49.957Z,98794.75
2022-09-20T12:20:44.937Z,98797.75
2022-09-20T12:23:39.229Z,98794.75
2022-09-20T12:26:21.042Z,98796.25
2022-09-20T12:28:51.344Z,98805.16
2022-09-20T12:31:32.172Z,98794.47
2022-09-20T12:34:10.871Z,98789.75
2022-09-20T12:36:46.210Z,98789.50
2022-09-20T12:39:14.402Z,98786.88
2022-09-20T12:41:48.036Z,98791.72
2022-09-20T12:44:29.260Z,98783.47
2022-09-20T12:47:04.582Z,98786.38
2022-09-20T12:49:57.662Z,98777.03
2022-09-20T12:52:44.490Z,98780.47
2022-09-20T12:55:13.239Z,98783.09
2022-09-20T12:57:40.442Z,98782.59
2022-09-20T13:00:27.681Z,98784.63
2022-09-20T13:02:54.339Z,98776.75
2022-09-20T13:05:38.171Z,98778.59
2022-09-20T13:08:25.973Z,98786.38
2022-09-20T13:11:39.932Z,98793.34
2022-09-20T13:14:06.940Z,98795.53
2022-09-20T13:16:37.015Z,98786.53
2022-09-20T13:19:06.720Z,98783.44
2022-09-20T13:21:38.093Z,98778.66
2022-09-20T13:24:05.479Z,98777.19
2022-09-20T13:26:51.887Z,98774.09
2022-09-20T13:29:35.101Z,98767.38
2022-09-20T13:32:30.668Z,98768.91
2022-09-20T13:35:12.400Z,98757.66
2022-09-20T13:37:47.030Z,98773.97
2022-09-20T13:40:35.097Z,98775.31
2022-09-20T13:43:22.488Z,98773.41
2022-09-20T13:45:53.937Z,98766.06
2022-09-20T13:48:24.838Z,98771.53
2022-09-20T13:50:53.659Z,98758.81
2022-09-20T13:53:40.232Z,98756.03
2022-09-20T13:56:22.468Z,98760.03
2022-09-20T13:58:49.678Z,98755.84
2022-09-20T14:01:24.456Z,98758.81
2022-09-20T14:03:51.032Z,98756.25
2022-09-20T14:06:17.573Z,98754.22
2022-09-20T14:08:48.413Z,98751.78
2022-09-20T14:11:27.937Z,98757.16
2022-09-20T14:13:58.183Z,98754.22
2022-09-20T14:16:29.859Z,98761.38
2022-09-20T14:18:58.499Z,98768.91
2022-09-20T14:21:28.354Z,98766.84
2022-09-20T14:24:07.181Z,98774.38
2022-09-20T14:26:36.202Z,98777.81
2022-09-20T14:29:29.630Z,98772.03
2022-09-20T14:31:57.661Z,98775.28
2022-09-20T14:34:24.099Z,98778.84
2022-09-20T14:36:50.973Z,98782.94
2022-09-20T14:39:19.136Z,98780.47
2022-09-20T14:41:46.554Z,98782.25
2022-09-20T14:44:30.808Z,98776.13
2022-09-20T14:46:57.651Z,98787.41
2022-09-20T14:49:24.010Z,98781.56
2022-09-20T14:51:51.597Z,98793.66
2022-09-20T14:54:28.915Z,98792.47
2022-09-20T14:57:04.437Z,98792.81
2022-09-20T14:59:45.243Z,98792.91
2022-09-20T15:02:14.805Z,98789.88
2022-09-20T15:04:51.244Z,98793.03
2022-09-20T15:07:17.634Z,98790.22
2022-09-20T15:09:44.013Z,98780.00
2022-09-20T15:12:16.686Z,98790.47
2022-09-20T15:14:43.494Z,98791.22
2022-09-20T15:17:14.703Z,98793.41
2022-09-20T15:19:41.163Z,98800.00
2022-09-20T15:22:10.141Z,98801.91
2022-09-20T15:24:36.555Z,98800.66
2022-09-20T15:27:02.958Z,98798.13
2022-09-20T15:29:29.395Z,98796.56
2022-09-20T15:31:55.888Z,98795.50
2022-09-20T15:34:22.310Z,98796.34
2022-09-20T15:36:48.827Z,98805.69
2022-09-20T15:39:15.326Z,98802.84
2022-09-20T15:41:42.065Z,98808.88
2022-09-20T15:44:08.488Z,98807.84
2022-09-20T15:46:35.184Z,98823.13
2022-09-20T15:49:02.737Z,98819.94
2022-09-20T15:51:33.241Z,98821.00
2022-09-20T15:54:02.028Z,98817.22
2022-09-20T15:56:31.319Z,98811.56
2022-09-20T15:59:00.203Z,98827.47
2022-09-20T16:01:32.897Z,98817.88
2022-09-20T16:03:59.854Z,98830.66
2022-09-20T16:06:26.275Z,98828.31
2022-09-20T16:08:52.927Z,98834.94
2022-09-20T16:11:22.864Z,98848.41
2022-09-20T16:13:57.435Z,98852.72
2022-09-20T16:16:25.605Z,98846.78
2022-09-20T16:19:10.944Z,98845.19
2022-09-20T16:21:39.493Z,98848.81
2022-09-20T16:24:07.757Z,98852.34
2022-09-20T16:26:35.416Z,98858.34
2022-09-20T16:29:04.565Z,98857.47
2022-09-20T16:31:42.276Z,98862.25
2022-09-20T16:34:21.971Z,98870.88
2022-09-20T16:36:58.545Z,98869.19
2022-09-20T16:39:28.943Z,98876.00
2022-09-20T16:41:57.333Z,98881.28
2022-09-20T16:44:24.114Z,98882.97
2022-09-20T16:46:50.666Z,98886.63
2022-09-20T16:49:17.518Z,98892.00
2022-09-20T16:51:44.934Z,98887.06
2022-09-20T16:54:15.947Z,98883.88
2022-09-20T16:56:48.013Z,98893.69
2022-09-20T16:59:16.306Z,98896.53
2022-09-20T17:01:43.246Z,98899.16
2022-09-20T17:04:12.266Z,98896.63
2022-09-20T17:06:39.066Z,98900.13
2022-09-20T17:09:06.587Z,98894.31
2022-09-20T17:11:35.837Z,98893.38
2022-09-20T17:14:02.890Z,98896.13
2022-09-20T17:16:32.216Z,98908.28
2022-09-20T17:19:00.638Z,98911.75
2022-09-20T17:21:28.742Z,98903.22
2022-09-20T17:23:57.799Z,98909.31
2022-09-20T17:26:26.382Z,98905.84
2022-09-20T17:28:58.096Z,98908.63
2022-09-20T17:31:30.170Z,98910.47
2022-09-20T17:34:00.085Z,98916.66
2022-09-20T17:36:39.085Z,98921.88
2022-09-20T17:39:07.047Z,98935.69
2022-09-20T17:41:37.461Z,98931.41
2022-09-20T17:44:08.327Z,98934.03
2022-09-20T17:46:37.192Z,98935.72
2022-09-20T17:49:13.108Z,98938.31
2022-09-20T17:51:45.240Z,98935.81
2022-09-20T17:54:15.462Z,98941.06
2022-09-20T17:56:44.100Z,98931.69
2022-09-20T17:59:11.816Z,98934.25
2022-09-20T18:01:40.231Z,98935.19
2022-09-20T18:04:07.622Z,98933.47
2022-09-20T18:06:36.632Z,98931.84
2022-09-20T18:09:09.061Z,98941.31
2022-09-20T18:11:39.062Z,98937.19
2022-09-20T18:14:07.210Z,98937.25
2022-09-20T18:16:35.106Z,98947.59
2022-09-20T18:19:01.917Z,98947.72
2022-09-20T18:21:29.992Z,98956.38
2022-09-20T18:23:57.433Z,98961.59
2022-09-20T18:26:27.618Z,98966.81
2022-09-20T18:28:56.756Z,98969.50
2022-09-20T18:31:39.792Z,98960.09
2022-09-20T18:34:08.419Z,98973.03
2022-09-20T18:36:36.696Z,98975.69
2022-09-20T18:39:03.545Z,98974.84
2022-09-20T18:41:32.959Z,98974.06
2022-09-20T18:44:00.877Z,98985.28
2022-09-20T18:46:30.563Z,98972.47
2022-09-20T18:49:00.239Z,98990.56
2022-09-20T18:51:30.653Z,98987.25
2022-09-20T18:53:58.086Z,98990.78
2022-09-20T18:56:31.890Z,98992.56
2022-09-20T18:59:01.508Z,98990.88
2022-09-20T19:01:48.767Z,98996.09
2022-09-20T19:04:34.107Z,98991.84
2022-09-20T19:07:06.569Z,98996.22
2022-09-20T19:09:43.271Z,98998.84
2022-09-20T19:12:24.261Z,98999.72
2022-09-20T19:15:15.771Z,99004.03
2022-09-20T19:17:46.379Z,99010.09
2022-09-20T19:20:34.762Z,98998.13
2022-09-20T19:23:34.713Z,99002.47
2022-09-20T19:26:19.006Z,99001.66
2022-09-20T19:28:46.097Z,99009.41
2022-09-20T19:31:23.672Z,99016.31
2022-09-20T19:33:54.075Z,99015.50
2022-09-20T19:36:22.198Z,99014.66
2022-09-20T19:39:24.130Z,99024.09
2022-09-20T19:42:03.933Z,99027.56
2022-09-20T19:44:53.217Z,99026.69
2022-09-20T19:47:47.144Z,99033.56
2022-09-20T19:50:18.028Z,99035.28
2022-09-20T19:52:44.954Z,99036.16
2022-09-20T19:55:13.425Z,99041.31
2022-09-20T19:57:46.872Z,99049.00
2022-09-20T20:00:16.532Z,99037.06
2022-09-20T20:02:44.802Z,99040.50
2022-09-20T20:05:16.498Z,99039.66
2022-09-20T20:07:53.499Z,99042.22
2022-09-20T20:10:26.089Z,99049.06
2022-09-20T20:13:42.226Z,99049.09
2022-09-20T20:16:15.145Z,99057.66
2022-09-20T20:19:09.223Z,99062.81
2022-09-20T20:21:55.442Z,99059.41
2022-09-20T20:24:46.598Z,99069.69
2022-09-20T20:27:13.011Z,99074.81
2022-09-20T20:29:39.414Z,99072.25
2022-09-20T20:32:05.779Z,99081.72
2022-09-20T20:34:33.212Z,99082.56
2022-09-20T20:37:02.623Z,99082.56
2022-09-20T20:39:31.509Z,99084.28
2022-09-20T20:42:02.569Z,99086.03
2022-09-20T20:44:36.899Z,99091.16
2022-09-20T20:47:05.006Z,99092.91
2022-09-20T20:49:32.019Z,99092.03
2022-09-20T20:51:59.658Z,99087.75
2022-09-20T20:54:26.174Z,99089.50
2022-09-20T20:56:52.610Z,99081.78
2022-09-20T20:59:19.027Z,99087.75
2022-09-20T21:01:45.831Z,99090.31
2022-09-20T21:04:13.485Z,99092.03
2022-09-20T21:06:41.552Z,99092.88
2022-09-20T21:09:11.447Z,99092.03
2022-09-20T21:11:43.078Z,99091.16
2022-09-20T21:14:10.463Z,99098.00
2022-09-20T21:16:38.925Z,99098.84
2022-09-20T21:19:07.020Z,99099.69
2022-09-20T21:21:42.676Z,99100.53
2022-09-20T21:24:11.482Z,99104.81
2022-09-20T21:26:39.694Z,99102.25
2022-09-20T21:29:08.339Z,99106.53
2022-09-20T21:31:36.114Z,99109.97
2022-09-20T21:34:06.646Z,99109.13
2022-09-20T21:36:34.313Z,99110.84
2022-09-20T21:39:00.797Z,99110.00
2022-09-20T21:41:29.628Z,99112.53
2022-09-20T21:43:58.203Z,99110.84
2022-09-20T21:46:33.534Z,99114.28
2022-09-20T21:49:06.455Z,99115.13
2022-09-20T21:51:33.458Z,99110.88
2022-09-20T21:54:01.542Z,99119.41
2022-09-20T21:56:31.181Z,99119.41
2022-09-20T21:58:58.406Z,99126.25
2022-09-20T22:01:27.081Z,99127.97
2022-09-20T22:03:59.068Z,99116.88
2022-09-20T22:06:33.887Z,99121.13
2022-09-20T22:09:06.479Z,99119.44
2022-09-20T22:11:36.027Z,99121.16
2022-09-20T22:14:02.406Z,99122.00
2022-09-20T22:16:34.473Z,99120.31
2022-09-20T22:19:01.530Z,99123.72
2022-09-20T22:21:30.347Z,99123.72
2022-09-20T22:24:01.529Z,99116.88
2022-09-20T22:26:39.707Z,99128.81
2022-09-20T22:29:06.900Z,99127.13
2022-09-20T22:31:35.835Z,99122.84
2022-09-20T22:34:05.539Z,99121.13
2022-09-20T22:36:34.698Z,99122.84
2022-09-20T22:39:01.915Z,99128.81
2022-09-20T22:41:28.555Z,99127.97
2022-09-20T22:43:54.975Z,99123.72
2022-09-20T22:46:24.354Z,99124.56
2022-09-20T22:48:51.125Z,99125.41
2022-09-20T22:51:22.552Z,99123.69
2022-09-20T22:53:49.399Z,99126.25
2022-09-20T22:56:24.879Z,99120.31
2022-09-20T22:58:53.670Z,99122.88
2022-09-20T23:01:23.078Z,99124.53
2022-09-20T23:04:01.206Z,99123.72
2022-09-20T23:06:32.101Z,99128.00
2022-09-20T23:09:01.163Z,99126.28
2022-09-20T23:11:28.577Z,99122.00
2022-09-20T23:13:57.417Z,99127.13
2022-09-20T23:16:35.538Z,99131.38
2022-09-20T23:19:02.939Z,99135.63
2022-09-20T23:21:30.239Z,99139.03
2022-09-20T23:24:01.974Z,99136.47
2022-09-20T23:26:30.946Z,99144.16
2022-09-20T23:28:59.346Z,99145.03
2022-09-20T23:31:27.022Z,99138.19
2022-09-20T23:33:56.516Z,99134.78
2022-09-20T23:36:24.667Z,99144.16
2022-09-20T23:38:51.461Z,99140.75
2022-09-20T23:41:21.081Z,99139.03
2022-09-20T23:43:48.170Z,99136.47
2022-09-20T23:46:16.443Z,99136.47
2022-09-20T23:48:43.344Z,99138.16
2022-09-20T23:51:12.931Z,99135.56
2022-09-20T23:53:39.576Z,99137.28
2022-09-20T23:56:06.680Z,99139.84
2022-09-20T23:58:35.788Z,99139.84
